createdAt,value
2019-04-30T00:00:22.065Z,11.26
2019-04-30T00:05:25.144Z,11.27
2019-04-30T00:10:35.411Z,11.26
2019-04-30T00:15:30.727Z,11.29
2019-04-30T00:20:37.049Z,11.29
2019-04-30T00:25:35.711Z,11.28
2019-04-30T00:30:39.258Z,11.29
2019-04-30T00:35:40.759Z,11.34
2019-04-30T00:40:42.290Z,11.33
2019-04-30T00:45:47.345Z,11.34
2019-04-30T00:50:47.447Z,11.31
2019-04-30T00:55:49.277Z,11.31
2019-04-30T01:00:50.858Z,11.31
2019-04-30T01:05:52.429Z,11.30
2019-04-30T01:10:55.631Z,11.28
2019-04-30T01:15:58.754Z,11.31
2019-04-30T01:21:02.931Z,11.29
2019-04-30T01:26:04.056Z,11.30
2019-04-30T01:31:06.063Z,11.31
2019-04-30T01:36:09.526Z,11.33
2019-04-30T01:41:11.063Z,11.33
2019-04-30T01:46:13.963Z,11.30
2019-04-30T01:51:20.335Z,11.27
2019-04-30T01:56:19.331Z,11.27
2019-04-30T02:01:20.896Z,11.26
2019-04-30T02:06:22.475Z,11.22
2019-04-30T02:11:24.379Z,11.21
2019-04-30T02:16:25.981Z,11.20
2019-04-30T02:21:27.561Z,11.17
2019-04-30T02:26:29.535Z,11.20
2019-04-30T02:31:31.129Z,11.20
2019-04-30T02:36:32.809Z,11.22
2019-04-30T02:41:35.114Z,11.21
2019-04-30T02:46:36.397Z,11.22
2019-04-30T02:51:39.994Z,11.24
2019-04-30T02:56:40.996Z,11.20
2019-04-30T03:01:42.320Z,11.22
2019-04-30T03:06:44.110Z,11.27
2019-04-30T03:11:45.464Z,11.26
2019-04-30T03:16:52.633Z,11.26
2019-04-30T03:21:50.501Z,11.25
2019-04-30T03:26:51.846Z,11.25
2019-04-30T03:31:53.231Z,11.22
2019-04-30T03:36:54.693Z,11.18
2019-04-30T03:41:56.045Z,11.18
2019-04-30T03:46:59.335Z,11.13
2019-04-30T03:52:00.951Z,11.20
2019-04-30T03:57:02.238Z,11.20
2019-04-30T04:02:03.715Z,11.18
2019-04-30T04:07:04.951Z,11.19
2019-04-30T04:12:06.465Z,11.20
2019-04-30T04:17:09.851Z,11.14
2019-04-30T04:22:12.266Z,11.17
2019-04-30T04:27:13.957Z,11.20
2019-04-30T04:32:15.225Z,11.20
2019-04-30T04:37:16.461Z,11.32
2019-04-30T04:42:19.388Z,11.23
2019-04-30T04:47:21.276Z,11.23
2019-04-30T04:52:23.019Z,11.18
2019-04-30T04:57:24.266Z,11.08
2019-04-30T05:02:25.637Z,11.06
2019-04-30T05:07:28.698Z,10.99
2019-04-30T05:12:30.570Z,10.93
2019-04-30T05:17:32.297Z,10.95
2019-04-30T05:22:33.767Z,10.97
2019-04-30T05:27:35.184Z,10.99
2019-04-30T05:32:36.417Z,11.00
2019-04-30T05:37:38.454Z,11.08
2019-04-30T05:42:39.999Z,11.18
2019-04-30T05:47:41.466Z,11.34
2019-04-30T05:52:42.844Z,11.54
2019-04-30T05:57:53.870Z,11.68
2019-04-30T06:02:49.526Z,11.75
2019-04-30T06:07:52.044Z,11.84
2019-04-30T06:12:53.972Z,12.00
2019-04-30T06:18:00.288Z,12.09
2019-04-30T06:22:59.652Z,12.28
2019-04-30T06:28:01.143Z,12.47
2019-04-30T06:33:02.950Z,12.43
2019-04-30T06:38:04.297Z,12.43
2019-04-30T06:43:05.862Z,12.54
2019-04-30T06:48:08.756Z,12.69
2019-04-30T06:53:10.244Z,12.76
2019-04-30T06:58:15.274Z,12.73
2019-04-30T07:03:15.183Z,12.96
2019-04-30T07:08:16.441Z,13.10
2019-04-30T07:13:18.788Z,13.44
2019-04-30T07:18:20.719Z,13.61
2019-04-30T07:23:22.191Z,13.51
2019-04-30T07:28:42.704Z,13.32
2019-04-30T07:33:29.427Z,13.07
2019-04-30T07:38:35.788Z,13.04
2019-04-30T07:43:34.126Z,13.00
2019-04-30T07:48:35.414Z,12.99
2019-04-30T07:53:36.887Z,12.94
2019-04-30T07:58:39.113Z,12.99
2019-04-30T08:03:40.940Z,12.95
2019-04-30T08:08:42.761Z,13.01
2019-04-30T08:13:44.755Z,13.04
2019-04-30T08:18:46.429Z,13.01
2019-04-30T08:23:48.975Z,13.05
2019-04-30T08:28:50.696Z,13.00
2019-04-30T08:33:52.155Z,12.88
2019-04-30T08:38:53.573Z,13.00
2019-04-30T08:43:54.836Z,13.04
2019-04-30T08:48:56.242Z,13.14
2019-04-30T08:53:58.707Z,13.09
2019-04-30T08:59:00.333Z,12.99
2019-04-30T09:04:02.307Z,13.17
2019-04-30T09:09:05.594Z,13.35
2019-04-30T09:14:08.565Z,13.26
2019-04-30T09:19:10.418Z,13.26
2019-04-30T09:24:11.659Z,13.28
2019-04-30T09:29:12.960Z,13.37
2019-04-30T09:34:18.028Z,13.56
2019-04-30T09:39:19.889Z,13.79
2019-04-30T09:44:21.858Z,13.69
2019-04-30T09:49:23.533Z,13.64
2019-04-30T09:54:25.246Z,13.71
2019-04-30T09:59:28.965Z,13.92
2019-04-30T10:04:31.233Z,14.06
2019-04-30T10:09:33.195Z,14.09
2019-04-30T10:14:34.439Z,14.09
2019-04-30T10:19:35.862Z,13.95
2019-04-30T10:24:39.206Z,14.00
2019-04-30T10:29:41.231Z,13.97
2019-04-30T10:34:42.636Z,13.76
2019-04-30T10:39:44.534Z,13.62
2019-04-30T10:44:45.763Z,13.59
2019-04-30T10:49:48.675Z,13.57
2019-04-30T10:54:50.110Z,13.61
2019-04-30T10:59:51.856Z,13.73
2019-04-30T11:04:53.372Z,13.76
2019-04-30T11:09:54.673Z,13.89
2019-04-30T11:14:55.897Z,14.21
2019-04-30T11:19:59.195Z,14.16
2019-04-30T11:25:02.760Z,14.41
2019-04-30T11:30:04.759Z,14.56
2019-04-30T11:35:07.462Z,14.82
2019-04-30T11:40:10.183Z,15.09
2019-04-30T11:45:19.452Z,15.07
2019-04-30T11:50:20.866Z,14.93
2019-04-30T11:55:22.129Z,14.86
2019-04-30T12:00:23.533Z,14.90
2019-04-30T12:05:25.008Z,15.03
2019-04-30T12:10:26.504Z,15.08
2019-04-30T12:15:29.112Z,15.50
2019-04-30T12:20:33.590Z,15.46
2019-04-30T12:25:34.711Z,15.62
2019-04-30T12:30:36.045Z,15.81
2019-04-30T12:35:37.312Z,15.58
2019-04-30T12:40:39.006Z,15.45
2019-04-30T12:45:40.293Z,15.33
2019-04-30T12:50:41.903Z,15.27
2019-04-30T12:55:43.385Z,15.40
2019-04-30T13:00:44.760Z,15.62
2019-04-30T13:05:46.477Z,15.64
2019-04-30T13:10:48.267Z,15.69
2019-04-30T13:15:49.938Z,15.70
2019-04-30T13:20:52.286Z,15.78
2019-04-30T13:25:53.861Z,15.53
2019-04-30T13:30:55.654Z,15.42
2019-04-30T13:35:58.429Z,15.20
2019-04-30T13:41:00.530Z,15.11
2019-04-30T13:46:02.001Z,15.35
2019-04-30T13:51:03.242Z,15.29
2019-04-30T13:56:04.639Z,15.04
2019-04-30T14:01:06.091Z,14.83
2019-04-30T14:06:09.118Z,14.81
2019-04-30T14:11:10.464Z,14.74
2019-04-30T14:16:11.893Z,14.58
2019-04-30T14:21:13.381Z,14.68
2019-04-30T14:26:15.009Z,14.67
2019-04-30T14:31:16.285Z,14.68
2019-04-30T14:36:19.351Z,14.49
2019-04-30T14:41:21.351Z,14.40
2019-04-30T14:46:23.489Z,14.33
2019-04-30T14:51:25.219Z,14.44
2019-04-30T14:56:26.450Z,14.30
2019-04-30T15:01:29.297Z,14.14
2019-04-30T15:06:31.241Z,14.13
2019-04-30T15:11:32.714Z,14.13
2019-04-30T15:16:34.235Z,14.17
2019-04-30T15:21:36.109Z,14.17
2019-04-30T15:26:39.335Z,14.09
2019-04-30T15:31:42.625Z,14.04
2019-04-30T15:36:43.977Z,14.15
2019-04-30T15:41:45.781Z,14.22
2019-04-30T15:46:47.474Z,14.12
2019-04-30T15:51:48.713Z,14.15
2019-04-30T15:56:50.140Z,14.22
2019-04-30T16:01:51.722Z,14.08
2019-04-30T16:06:53.195Z,13.99
2019-04-30T16:11:54.557Z,13.88
2019-04-30T16:16:56.360Z,13.87
2019-04-30T16:21:57.596Z,13.98
2019-04-30T16:26:59.496Z,13.86
2019-04-30T16:32:00.966Z,13.79
2019-04-30T16:37:02.321Z,13.71
2019-04-30T16:42:03.710Z,13.64
2019-04-30T16:47:13.728Z,13.52
2019-04-30T16:52:09.188Z,13.47
2019-04-30T16:57:10.714Z,13.43
2019-04-30T17:02:12.231Z,13.37
2019-04-30T17:07:13.645Z,13.29
2019-04-30T17:12:14.992Z,13.11
2019-04-30T17:17:16.695Z,13.01
2019-04-30T17:22:18.084Z,12.98
2019-04-30T17:27:22.121Z,12.96
2019-04-30T17:32:23.316Z,12.89
2019-04-30T17:37:24.564Z,12.78
2019-04-30T17:47:34.421Z,12.77
2019-04-30T17:52:37.230Z,12.72
2019-04-30T17:57:40.312Z,12.68
2019-04-30T18:02:41.824Z,12.62
2019-04-30T18:07:43.297Z,12.55
2019-04-30T18:12:44.708Z,12.57
2019-04-30T18:17:46.116Z,12.53
2019-04-30T18:22:48.896Z,12.48
2019-04-30T18:27:50.401Z,12.43
2019-04-30T18:32:52.528Z,12.44
2019-04-30T18:37:54.026Z,12.40
2019-04-30T18:42:55.849Z,12.29
2019-04-30T18:47:59.451Z,12.24
2019-04-30T18:53:01.044Z,12.18
2019-04-30T18:58:02.887Z,12.13
2019-04-30T19:03:04.186Z,12.16
2019-04-30T19:08:05.566Z,12.13
2019-04-30T19:13:08.805Z,12.09
2019-04-30T19:18:10.220Z,12.04
2019-04-30T19:23:12.179Z,12.22
2019-04-30T19:28:14.580Z,12.04
2019-04-30T19:33:16.297Z,12.02
2019-04-30T19:38:17.774Z,12.02
2019-04-30T19:43:19.379Z,11.99
2019-04-30T19:48:21.047Z,11.95
2019-04-30T19:53:22.432Z,11.90
2019-04-30T19:58:29.399Z,11.83
2019-04-30T20:03:29.184Z,11.78
2019-04-30T20:08:31.366Z,11.80
2019-04-30T20:13:37.074Z,11.82
2019-04-30T20:18:36.021Z,11.83
2019-04-30T20:23:37.378Z,11.82
2019-04-30T20:28:42.270Z,11.75
2019-04-30T20:33:42.045Z,11.71
2019-04-30T20:38:43.794Z,11.69
2019-04-30T20:43:45.039Z,11.65
2019-04-30T20:48:46.519Z,11.66
2019-04-30T20:53:49.160Z,11.64
2019-04-30T20:58:57.813Z,11.64
2019-04-30T21:03:53.913Z,11.61
2019-04-30T21:08:55.461Z,11.56
2019-04-30T21:13:56.709Z,11.49
2019-04-30T21:18:58.312Z,11.43
2019-04-30T21:23:59.601Z,11.46
2019-04-30T21:29:11.086Z,11.42
2019-04-30T21:34:04.586Z,11.40
2019-04-30T21:39:06.052Z,11.37
2019-04-30T21:44:07.528Z,11.33
2019-04-30T21:49:09.011Z,11.35
2019-04-30T21:54:10.380Z,11.37
2019-04-30T21:59:23.765Z,11.34
2019-04-30T22:04:14.931Z,11.26
2019-04-30T22:09:16.186Z,11.24
2019-04-30T22:14:17.912Z,11.26
2019-04-30T22:19:19.181Z,11.23
2019-04-30T22:24:20.887Z,11.34
2019-04-30T22:29:22.253Z,11.36
2019-04-30T22:34:23.825Z,11.25
2019-04-30T22:39:25.076Z,11.36
2019-04-30T22:44:26.652Z,11.41
2019-04-30T22:49:28.240Z,11.44
2019-04-30T22:54:29.786Z,11.39
2019-04-30T22:59:31.244Z,11.33
2019-04-30T23:04:32.841Z,11.24
2019-04-30T23:09:34.092Z,11.17
2019-04-30T23:14:35.358Z,11.03
2019-04-30T23:19:36.715Z,10.78
2019-04-30T23:24:37.980Z,10.52
2019-04-30T23:29:39.818Z,10.28
2019-04-30T23:34:41.136Z,10.07
2019-04-30T23:39:42.393Z,9.94
2019-04-30T23:44:43.938Z,9.82
2019-04-30T23:49:45.176Z,9.68
2019-04-30T23:54:46.705Z,9.57
2019-04-30T23:59:47.932Z,9.43
